Change Of Latitude — WDF6082 — position and weather

sailwx.info

Track history (hours):
 
Tides and Currents Weather Stations Pressure Air Temp Water Temp Dewpoint Dewpoint Depression Visibility Wind Speed Wind Dir Waves Ship Positions

Change Of Latitude

More information available from US FCC via Universal Licensing System and Coast Guard Vessel Documentation Center.

Last reported at 2014-Sep-18 18:25 UTC. Time now 2014-Sep-19 07:47 UTC.
Position N 48°38' W 123°03'.

Length 15 m.

Type: Pleasure craft. MMSI: 367470440.

Date/timePositionNaut miles runAvg speedWind from/ knotsBaromVisibWave heightAir tempDewpointWater temp
2014-Sep-18 18:25N 48°38' W 123°03'6 7.1
2014-Sep-18 17:32N 48°33' W 122°60'1 0.9
2014-Sep-18 16:32N 48°32' W 123°01'0 0.0
2014-Sep-18 15:32N 48°32' W 123°01'0 0.0
2014-Sep-18 05:30N 48°32' W 123°01'0 0.0
2014-Sep-18 04:33N 48°32' W 123°01'0 0.0
2014-Sep-18 03:33N 48°32' W 123°01'0 0.0
2014-Sep-18 02:33N 48°32' W 123°01'0 0.0
2014-Sep-18 01:30N 48°32' W 123°01'0 0.0
2014-Sep-18 00:33N 48°32' W 123°01'0 0.0
2014-Sep-17 23:33N 48°32' W 123°01'0 0.0
2014-Sep-17 22:27N 48°32' W 123°01'0 0.0
2014-Sep-17 21:33N 48°32' W 123°01'0 0.0
2014-Sep-17 20:33N 48°32' W 123°01'0 0.0
2014-Sep-17 19:33N 48°32' W 123°01'0 0.0
2014-Sep-17 18:33N 48°32' W 123°01'0 0.0
2014-Sep-17 17:33N 48°32' W 123°01'0 0.0
2014-Sep-17 16:24N 48°32' W 123°01'0 0.0
2014-Sep-17 15:33N 48°32' W 123°01'0 0.0
2014-Sep-16 21:26N 48°32' W 123°01'0 0.0
2014-Sep-16 20:32N 48°32' W 123°01'0 0.1
2014-Sep-16 19:33N 48°32' W 123°01'42 1.8
2014-Sep-15 20:22N 49°08' W 123°35'8 9.3
2014-Sep-15 19:33N 49°13' W 123°43'7 6.5
2014-Sep-15 18:32N 49°19' W 123°49'7 6.9
2014-Sep-15 17:33N 49°24' W 123°55'9 9.2
2014-Sep-15 16:33N 49°32' W 124°03'6 6.4
2014-Sep-15 15:33N 49°38' W 124°02'0 0.0
2014-Sep-14 23:28N 49°38' W 124°02'0 0.1
2014-Sep-14 22:34N 49°38' W 124°02'6 5.7
2014-Sep-14 21:32N 49°44' W 124°03'9 9.5
2014-Sep-14 20:33N 49°51' W 123°54'9 8.9
2014-Sep-14 19:33N 49°60' W 123°57'2 0.1
2014-Sep-12 19:06N 50°01' W 123°54'5 8.2
2014-Sep-12 18:32N 49°58' W 123°59'8 8.3
2014-Sep-12 17:33N 49°50' W 123°55'9 9.1
2014-Sep-12 16:32N 49°43' W 124°03'9 9.1
2014-Sep-12 15:33N 49°34' W 124°02'3 0.2
2014-Sep-11 20:06N 49°32' W 123°58'1 2.1
2014-Sep-11 19:33N 49°31' W 123°58'10 9.2
2014-Sep-11 18:28N 49°22' W 123°50'9 9.1
2014-Sep-11 17:29N 49°14' W 123°44'13 0.6
2014-Sep-10 19:29N 49°03' W 123°36'  
Track history (hours):
 
Tides and Currents Weather Stations Pressure Air Temp Water Temp Dewpoint Dewpoint Depression Visibility Wind Speed Wind Dir Waves Ship Positions

Change Of Latitude

More information available from US FCC via Universal Licensing System and Coast Guard Vessel Documentation Center.

Last reported at 2014-Sep-18 18:25 UTC. Time now 2014-Sep-19 07:47 UTC.
Position N 48°38' W 123°03'.

Length 15 m.

Type: Pleasure craft. MMSI: 367470440.

Date/timePositionNaut miles runAvg speedWind from/ knotsBaromVisibWave heightAir tempDewpointWater temp
2014-Sep-18 18:25N 48°38' W 123°03'6 7.1
2014-Sep-18 17:32N 48°33' W 122°60'1 0.9
2014-Sep-18 16:32N 48°32' W 123°01'0 0.0
2014-Sep-18 15:32N 48°32' W 123°01'0 0.0
2014-Sep-18 05:30N 48°32' W 123°01'0 0.0
2014-Sep-18 04:33N 48°32' W 123°01'0 0.0
2014-Sep-18 03:33N 48°32' W 123°01'0 0.0
2014-Sep-18 02:33N 48°32' W 123°01'0 0.0
2014-Sep-18 01:30N 48°32' W 123°01'0 0.0
2014-Sep-18 00:33N 48°32' W 123°01'0 0.0
2014-Sep-17 23:33N 48°32' W 123°01'0 0.0
2014-Sep-17 22:27N 48°32' W 123°01'0 0.0
2014-Sep-17 21:33N 48°32' W 123°01'0 0.0
2014-Sep-17 20:33N 48°32' W 123°01'0 0.0
2014-Sep-17 19:33N 48°32' W 123°01'0 0.0
2014-Sep-17 18:33N 48°32' W 123°01'0 0.0
2014-Sep-17 17:33N 48°32' W 123°01'0 0.0
2014-Sep-17 16:24N 48°32' W 123°01'0 0.0
2014-Sep-17 15:33N 48°32' W 123°01'0 0.0
2014-Sep-16 21:26N 48°32' W 123°01'0 0.0
2014-Sep-16 20:32N 48°32' W 123°01'0 0.1
2014-Sep-16 19:33N 48°32' W 123°01'42 1.8
2014-Sep-15 20:22N 49°08' W 123°35'8 9.3
2014-Sep-15 19:33N 49°13' W 123°43'7 6.5
2014-Sep-15 18:32N 49°19' W 123°49'7 6.9
2014-Sep-15 17:33N 49°24' W 123°55'9 9.2
2014-Sep-15 16:33N 49°32' W 124°03'6 6.4
2014-Sep-15 15:33N 49°38' W 124°02'0 0.0
2014-Sep-14 23:28N 49°38' W 124°02'0 0.1
2014-Sep-14 22:34N 49°38' W 124°02'6 5.7
2014-Sep-14 21:32N 49°44' W 124°03'9 9.5
2014-Sep-14 20:33N 49°51' W 123°54'9 8.9
2014-Sep-14 19:33N 49°60' W 123°57'2 0.1
2014-Sep-12 19:06N 50°01' W 123°54'5 8.2
2014-Sep-12 18:32N 49°58' W 123°59'8 8.3
2014-Sep-12 17:33N 49°50' W 123°55'9 9.1
2014-Sep-12 16:32N 49°43' W 124°03'9 9.1
2014-Sep-12 15:33N 49°34' W 124°02'3 0.2
2014-Sep-11 20:06N 49°32' W 123°58'1 2.1
2014-Sep-11 19:33N 49°31' W 123°58'10 9.2
2014-Sep-11 18:28N 49°22' W 123°50'9 9.1
2014-Sep-11 17:29N 49°14' W 123°44'13 0.6
2014-Sep-10 19:29N 49°03' W 123°36'  

Dump ship's entire track history